sensor_id;sensor_type;location;lat;lon;timestamp;temperature;humidity
3842;DHT22;1936;47.074;15.336;2023-11-21T00:01:30;4.70;99.90
3842;DHT22;1936;47.074;15.336;2023-11-21T00:03:34;4.70;99.90
3842;DHT22;1936;47.074;15.336;2023-11-21T00:05:38;4.70;99.90
3842;DHT22;1936;47.074;15.336;2023-11-21T00:07:43;4.70;99.90
3842;DHT22;1936;47.074;15.336;2023-11-21T00:09:46;4.60;99.90
3842;DHT22;1936;47.074;15.336;2023-11-21T00:11:49;4.60;99.90
3842;DHT22;1936;47.074;15.336;2023-11-21T00:13:52;4.60;99.90
3842;DHT22;1936;47.074;15.336;2023-11-21T00:15:58;4.60;99.90
3842;DHT22;1936;47.074;15.336;2023-11-21T00:18:01;4.60;99.90
3842;DHT22;1936;47.074;15.336;2023-11-21T00:20:05;4.60;99.90
3842;DHT22;1936;47.074;15.336;2023-11-21T00:22:09;4.60;99.90
3842;DHT22;1936;47.074;15.336;2023-11-21T00:24:16;4.50;99.90
3842;DHT22;1936;47.074;15.336;2023-11-21T00:26:27;4.60;99.90
3842;DHT22;1936;47.074;15.336;2023-11-21T00:28:30;4.60;99.90
3842;DHT22;1936;47.074;15.336;2023-11-21T00:30:34;4.70;99.90
3842;DHT22;1936;47.074;15.336;2023-11-21T00:32:39;4.70;99.90
3842;DHT22;1936;47.074;15.336;2023-11-21T00:34:42;4.80;99.90
3842;DHT22;1936;47.074;15.336;2023-11-21T00:36:45;4.80;99.90
3842;DHT22;1936;47.074;15.336;2023-11-21T00:38:49;4.80;99.90
3842;DHT22;1936;47.074;15.336;2023-11-21T00:40:52;4.80;99.90
3842;DHT22;1936;47.074;15.336;2023-11-21T00:42:58;4.80;99.90
3842;DHT22;1936;47.074;15.336;2023-11-21T00:45:03;4.80;99.90
3842;DHT22;1936;47.074;15.336;2023-11-21T00:47:08;4.80;99.90
3842;DHT22;1936;47.074;15.336;2023-11-21T00:49:13;4.90;99.90
3842;DHT22;1936;47.074;15.336;2023-11-21T00:51:16;5.00;99.90
3842;DHT22;1936;47.074;15.336;2023-11-21T00:53:20;5.00;99.90
3842;DHT22;1936;47.074;15.336;2023-11-21T00:55:23;5.00;99.90
3842;DHT22;1936;47.074;15.336;2023-11-21T00:57:27;5.00;99.90
3842;DHT22;1936;47.074;15.336;2023-11-21T00:59:30;5.10;99.90
3842;DHT22;1936;47.074;15.336;2023-11-21T01:01:33;5.10;99.90
3842;DHT22;1936;47.074;15.336;2023-11-21T01:03:37;5.10;99.90
3842;DHT22;1936;47.074;15.336;2023-11-21T01:05:41;5.10;99.90
3842;DHT22;1936;47.074;15.336;2023-11-21T01:07:45;5.20;99.90
3842;DHT22;1936;47.074;15.336;2023-11-21T01:09:48;5.20;99.90
3842;DHT22;1936;47.074;15.336;2023-11-21T01:11:51;5.20;99.90
3842;DHT22;1936;47.074;15.336;2023-11-21T01:13:55;5.20;99.90
3842;DHT22;1936;47.074;15.336;2023-11-21T01:15:59;5.20;99.90
3842;DHT22;1936;47.074;15.336;2023-11-21T01:18:02;5.20;99.90
3842;DHT22;1936;47.074;15.336;2023-11-21T01:20:07;5.10;99.90
3842;DHT22;1936;47.074;15.336;2023-11-21T01:22:15;5.10;99.90
3842;DHT22;1936;47.074;15.336;2023-11-21T01:24:20;5.10;99.90
3842;DHT22;1936;47.074;15.336;2023-11-21T01:26:23;5.10;99.90
3842;DHT22;1936;47.074;15.336;2023-11-21T01:28:27;5.10;99.90
3842;DHT22;1936;47.074;15.336;2023-11-21T01:30:30;5.10;99.90
3842;DHT22;1936;47.074;15.336;2023-11-21T01:32:34;5.20;99.90
3842;DHT22;1936;47.074;15.336;2023-11-21T01:34:37;5.20;99.90
3842;DHT22;1936;47.074;15.336;2023-11-21T01:36:40;5.20;99.90
3842;DHT22;1936;47.074;15.336;2023-11-21T01:38:45;5.20;99.90
3842;DHT22;1936;47.074;15.336;2023-11-21T01:40:49;5.20;99.90
3842;DHT22;1936;47.074;15.336;2023-11-21T01:42:53;5.30;99.90
3842;DHT22;1936;47.074;15.336;2023-11-21T01:44:56;5.20;99.90
3842;DHT22;1936;47.074;15.336;2023-11-21T01:47:00;5.20;99.90
3842;DHT22;1936;47.074;15.336;2023-11-21T01:49:07;5.30;99.90
3842;DHT22;1936;47.074;15.336;2023-11-21T01:51:11;5.30;99.90
3842;DHT22;1936;47.074;15.336;2023-11-21T01:53:15;5.30;99.90
3842;DHT22;1936;47.074;15.336;2023-11-21T01:55:20;5.30;99.90
3842;DHT22;1936;47.074;15.336;2023-11-21T01:57:26;5.40;99.90
3842;DHT22;1936;47.074;15.336;2023-11-21T01:59:34;5.30;99.90
3842;DHT22;1936;47.074;15.336;2023-11-21T02:01:38;5.30;99.90
3842;DHT22;1936;47.074;15.336;2023-11-21T02:03:43;5.40;99.90
3842;DHT22;1936;47.074;15.336;2023-11-21T02:05:47;5.50;99.90
3842;DHT22;1936;47.074;15.336;2023-11-21T02:07:50;5.50;99.90
3842;DHT22;1936;47.074;15.336;2023-11-21T02:09:54;5.50;99.90
3842;DHT22;1936;47.074;15.336;2023-11-21T02:11:59;5.50;99.90
3842;DHT22;1936;47.074;15.336;2023-11-21T02:14:03;5.50;99.90
3842;DHT22;1936;47.074;15.336;2023-11-21T02:16:09;5.60;99.90
3842;DHT22;1936;47.074;15.336;2023-11-21T02:18:14;5.70;99.90
3842;DHT22;1936;47.074;15.336;2023-11-21T02:20:18;5.70;99.90
3842;DHT22;1936;47.074;15.336;2023-11-21T02:22:21;5.70;99.90
3842;DHT22;1936;47.074;15.336;2023-11-21T02:24:29;5.70;99.90
3842;DHT22;1936;47.074;15.336;2023-11-21T02:26:33;5.70;99.90
3842;DHT22;1936;47.074;15.336;2023-11-21T02:28:37;5.70;99.90
3842;DHT22;1936;47.074;15.336;2023-11-21T02:30:41;5.70;99.90
3842;DHT22;1936;47.074;15.336;2023-11-21T02:32:44;5.70;99.90
3842;DHT22;1936;47.074;15.336;2023-11-21T02:34:50;5.80;99.90
3842;DHT22;1936;47.074;15.336;2023-11-21T02:36:53;5.80;99.90
3842;DHT22;1936;47.074;15.336;2023-11-21T02:38:57;5.70;99.90
3842;DHT22;1936;47.074;15.336;2023-11-21T02:41:02;5.80;99.90
3842;DHT22;1936;47.074;15.336;2023-11-21T02:43:06;5.70;99.90
3842;DHT22;1936;47.074;15.336;2023-11-21T02:45:10;5.70;99.90
3842;DHT22;1936;47.074;15.336;2023-11-21T02:47:14;5.70;99.90
3842;DHT22;1936;47.074;15.336;2023-11-21T02:49:18;5.70;99.90
3842;DHT22;1936;47.074;15.336;2023-11-21T02:51:21;5.70;99.90
3842;DHT22;1936;47.074;15.336;2023-11-21T02:53:24;5.70;99.90
3842;DHT22;1936;47.074;15.336;2023-11-21T02:55:28;5.70;99.90
3842;DHT22;1936;47.074;15.336;2023-11-21T02:57:34;5.60;99.90
3842;DHT22;1936;47.074;15.336;2023-11-21T02:59:37;5.60;99.90
3842;DHT22;1936;47.074;15.336;2023-11-21T03:01:41;5.70;99.90
3842;DHT22;1936;47.074;15.336;2023-11-21T03:03:45;5.70;99.90
3842;DHT22;1936;47.074;15.336;2023-11-21T03:05:52;5.70;99.90
3842;DHT22;1936;47.074;15.336;2023-11-21T03:07:55;5.70;99.90
3842;DHT22;1936;47.074;15.336;2023-11-21T03:09:59;5.80;99.90
3842;DHT22;1936;47.074;15.336;2023-11-21T03:12:03;5.80;99.90
3842;DHT22;1936;47.074;15.336;2023-11-21T03:14:07;5.80;99.90
3842;DHT22;1936;47.074;15.336;2023-11-21T03:16:11;5.80;99.90
3842;DHT22;1936;47.074;15.336;2023-11-21T03:18:15;5.90;99.90
3842;DHT22;1936;47.074;15.336;2023-11-21T03:20:19;5.90;99.90
3842;DHT22;1936;47.074;15.336;2023-11-21T03:22:22;5.90;99.90
3842;DHT22;1936;47.074;15.336;2023-11-21T03:24:26;5.90;99.90
3842;DHT22;1936;47.074;15.336;2023-11-21T03:26:29;5.90;99.90
3842;DHT22;1936;47.074;15.336;2023-11-21T03:28:33;5.90;99.90
3842;DHT22;1936;47.074;15.336;2023-11-21T03:30:37;5.90;99.90
3842;DHT22;1936;47.074;15.336;2023-11-21T03:32:40;5.90;99.90
3842;DHT22;1936;47.074;15.336;2023-11-21T03:35:01;5.90;99.90
3842;DHT22;1936;47.074;15.336;2023-11-21T03:37:05;5.90;99.90
3842;DHT22;1936;47.074;15.336;2023-11-21T03:39:09;5.90;99.90
3842;DHT22;1936;47.074;15.336;2023-11-21T03:41:12;5.90;99.90
3842;DHT22;1936;47.074;15.336;2023-11-21T03:43:16;6.00;99.90
3842;DHT22;1936;47.074;15.336;2023-11-21T03:45:20;5.90;99.90
3842;DHT22;1936;47.074;15.336;2023-11-21T03:47:25;6.00;99.90
3842;DHT22;1936;47.074;15.336;2023-11-21T03:49:29;6.00;99.90
3842;DHT22;1936;47.074;15.336;2023-11-21T03:51:32;6.00;99.90
3842;DHT22;1936;47.074;15.336;2023-11-21T03:53:36;6.00;99.90
3842;DHT22;1936;47.074;15.336;2023-11-21T03:55:39;6.00;99.90
3842;DHT22;1936;47.074;15.336;2023-11-21T03:57:43;6.00;99.90
3842;DHT22;1936;47.074;15.336;2023-11-21T03:59:46;6.00;99.90
3842;DHT22;1936;47.074;15.336;2023-11-21T04:01:48;6.00;99.90
3842;DHT22;1936;47.074;15.336;2023-11-21T04:03:53;6.00;99.90
3842;DHT22;1936;47.074;15.336;2023-11-21T04:05:56;6.00;99.90
3842;DHT22;1936;47.074;15.336;2023-11-21T04:08:00;6.00;99.90
3842;DHT22;1936;47.074;15.336;2023-11-21T04:10:04;6.00;99.90
3842;DHT22;1936;47.074;15.336;2023-11-21T04:12:09;5.90;99.90
3842;DHT22;1936;47.074;15.336;2023-11-21T04:14:13;5.90;99.90
3842;DHT22;1936;47.074;15.336;2023-11-21T04:16:16;5.90;99.90
3842;DHT22;1936;47.074;15.336;2023-11-21T04:18:20;5.80;99.90
3842;DHT22;1936;47.074;15.336;2023-11-21T04:20:24;5.80;99.90
3842;DHT22;1936;47.074;15.336;2023-11-21T04:22:28;5.80;99.90
3842;DHT22;1936;47.074;15.336;2023-11-21T04:24:31;5.80;99.90
3842;DHT22;1936;47.074;15.336;2023-11-21T04:26:34;5.80;99.90
3842;DHT22;1936;47.074;15.336;2023-11-21T04:28:38;5.80;99.90
3842;DHT22;1936;47.074;15.336;2023-11-21T04:30:41;5.80;99.90
3842;DHT22;1936;47.074;15.336;2023-11-21T04:32:44;5.80;99.90
3842;DHT22;1936;47.074;15.336;2023-11-21T04:34:48;5.80;99.90
3842;DHT22;1936;47.074;15.336;2023-11-21T04:36:53;5.70;99.90
3842;DHT22;1936;47.074;15.336;2023-11-21T04:38:56;5.70;99.90
3842;DHT22;1936;47.074;15.336;2023-11-21T04:41:00;5.70;99.90
3842;DHT22;1936;47.074;15.336;2023-11-21T04:43:05;5.70;99.90
3842;DHT22;1936;47.074;15.336;2023-11-21T04:45:09;5.70;99.90
3842;DHT22;1936;47.074;15.336;2023-11-21T04:47:15;5.70;99.90
3842;DHT22;1936;47.074;15.336;2023-11-21T04:49:17;5.60;99.90
3842;DHT22;1936;47.074;15.336;2023-11-21T04:51:21;5.60;99.90
3842;DHT22;1936;47.074;15.336;2023-11-21T04:53:26;5.60;99.90
3842;DHT22;1936;47.074;15.336;2023-11-21T04:55:29;5.70;99.90
3842;DHT22;1936;47.074;15.336;2023-11-21T04:57:32;5.70;99.90
3842;DHT22;1936;47.074;15.336;2023-11-21T04:59:36;5.70;99.90
3842;DHT22;1936;47.074;15.336;2023-11-21T05:01:39;5.60;99.90
3842;DHT22;1936;47.074;15.336;2023-11-21T05:03:43;5.70;99.90
3842;DHT22;1936;47.074;15.336;2023-11-21T05:05:45;5.70;99.90
3842;DHT22;1936;47.074;15.336;2023-11-21T05:07:49;5.70;99.90
3842;DHT22;1936;47.074;15.336;2023-11-21T05:09:55;5.70;99.90
3842;DHT22;1936;47.074;15.336;2023-11-21T05:11:58;5.70;99.90
3842;DHT22;1936;47.074;15.336;2023-11-21T05:14:02;5.80;99.90
3842;DHT22;1936;47.074;15.336;2023-11-21T05:16:07;5.80;99.90
3842;DHT22;1936;47.074;15.336;2023-11-21T05:18:11;5.80;99.90
3842;DHT22;1936;47.074;15.336;2023-11-21T05:20:16;5.80;99.90
3842;DHT22;1936;47.074;15.336;2023-11-21T05:22:23;5.80;99.90
3842;DHT22;1936;47.074;15.336;2023-11-21T05:24:26;5.70;99.90
3842;DHT22;1936;47.074;15.336;2023-11-21T05:26:32;5.80;99.90
3842;DHT22;1936;47.074;15.336;2023-11-21T05:28:35;5.70;99.90
3842;DHT22;1936;47.074;15.336;2023-11-21T05:30:39;5.70;99.90
3842;DHT22;1936;47.074;15.336;2023-11-21T05:32:42;5.70;99.90
3842;DHT22;1936;47.074;15.336;2023-11-21T05:34:45;5.80;99.90
3842;DHT22;1936;47.074;15.336;2023-11-21T05:36:49;5.80;99.90
3842;DHT22;1936;47.074;15.336;2023-11-21T05:38:52;5.80;99.90
3842;DHT22;1936;47.074;15.336;2023-11-21T05:40:55;5.80;99.90
3842;DHT22;1936;47.074;15.336;2023-11-21T05:43:01;5.80;99.90
3842;DHT22;1936;47.074;15.336;2023-11-21T05:45:08;5.80;99.90
3842;DHT22;1936;47.074;15.336;2023-11-21T05:47:13;5.80;99.90
3842;DHT22;1936;47.074;15.336;2023-11-21T05:49:16;5.90;99.90
3842;DHT22;1936;47.074;15.336;2023-11-21T05:51:23;5.80;99.90
3842;DHT22;1936;47.074;15.336;2023-11-21T05:53:27;5.80;99.90
3842;DHT22;1936;47.074;15.336;2023-11-21T05:55:30;5.80;99.90
3842;DHT22;1936;47.074;15.336;2023-11-21T05:57:34;5.80;99.90
3842;DHT22;1936;47.074;15.336;2023-11-21T05:59:40;5.80;99.90
3842;DHT22;1936;47.074;15.336;2023-11-21T06:01:43;5.70;99.90
3842;DHT22;1936;47.074;15.336;2023-11-21T06:03:47;5.80;99.90
3842;DHT22;1936;47.074;15.336;2023-11-21T06:05:51;5.80;99.90
3842;DHT22;1936;47.074;15.336;2023-11-21T06:07:55;5.80;99.90
3842;DHT22;1936;47.074;15.336;2023-11-21T06:10:01;5.80;99.90
3842;DHT22;1936;47.074;15.336;2023-11-21T06:12:07;5.90;99.90
3842;DHT22;1936;47.074;15.336;2023-11-21T06:14:11;5.90;99.90
3842;DHT22;1936;47.074;15.336;2023-11-21T06:16:16;5.80;99.90
3842;DHT22;1936;47.074;15.336;2023-11-21T06:18:21;5.80;99.90
3842;DHT22;1936;47.074;15.336;2023-11-21T06:20:24;5.80;99.90
3842;DHT22;1936;47.074;15.336;2023-11-21T06:22:28;5.80;99.90
3842;DHT22;1936;47.074;15.336;2023-11-21T06:24:32;5.80;99.90
3842;DHT22;1936;47.074;15.336;2023-11-21T06:26:35;5.80;99.90
3842;DHT22;1936;47.074;15.336;2023-11-21T06:28:39;5.90;99.90
3842;DHT22;1936;47.074;15.336;2023-11-21T06:30:43;5.90;99.90
3842;DHT22;1936;47.074;15.336;2023-11-21T06:32:48;5.90;99.90
3842;DHT22;1936;47.074;15.336;2023-11-21T06:34:53;5.90;99.90
3842;DHT22;1936;47.074;15.336;2023-11-21T06:36:57;5.90;99.90
3842;DHT22;1936;47.074;15.336;2023-11-21T06:39:00;5.90;99.90
3842;DHT22;1936;47.074;15.336;2023-11-21T06:41:07;5.90;99.90
3842;DHT22;1936;47.074;15.336;2023-11-21T06:43:11;5.90;99.90
3842;DHT22;1936;47.074;15.336;2023-11-21T06:45:15;6.00;99.90
3842;DHT22;1936;47.074;15.336;2023-11-21T06:47:19;6.00;99.90
3842;DHT22;1936;47.074;15.336;2023-11-21T06:49:23;6.00;99.90
3842;DHT22;1936;47.074;15.336;2023-11-21T06:51:27;6.00;99.90
3842;DHT22;1936;47.074;15.336;2023-11-21T06:53:31;6.00;99.90
3842;DHT22;1936;47.074;15.336;2023-11-21T06:55:37;6.00;99.90
3842;DHT22;1936;47.074;15.336;2023-11-21T06:57:40;6.10;99.90
3842;DHT22;1936;47.074;15.336;2023-11-21T06:59:45;6.10;99.90
3842;DHT22;1936;47.074;15.336;2023-11-21T07:01:48;6.20;99.90
3842;DHT22;1936;47.074;15.336;2023-11-21T07:03:51;6.20;99.90
3842;DHT22;1936;47.074;15.336;2023-11-21T07:05:56;6.20;99.90
3842;DHT22;1936;47.074;15.336;2023-11-21T07:08:00;6.20;99.90
3842;DHT22;1936;47.074;15.336;2023-11-21T07:10:07;6.30;99.90
3842;DHT22;1936;47.074;15.336;2023-11-21T07:12:11;6.30;99.90
3842;DHT22;1936;47.074;15.336;2023-11-21T07:14:14;6.30;99.90
3842;DHT22;1936;47.074;15.336;2023-11-21T07:16:18;6.30;99.90
3842;DHT22;1936;47.074;15.336;2023-11-21T07:18:23;6.40;99.90
3842;DHT22;1936;47.074;15.336;2023-11-21T07:20:25;6.40;99.90
3842;DHT22;1936;47.074;15.336;2023-11-21T07:22:30;6.40;99.90
3842;DHT22;1936;47.074;15.336;2023-11-21T07:24:34;6.50;99.90
3842;DHT22;1936;47.074;15.336;2023-11-21T07:26:38;6.50;99.90
3842;DHT22;1936;47.074;15.336;2023-11-21T07:28:41;6.50;99.90
3842;DHT22;1936;47.074;15.336;2023-11-21T07:30:45;6.60;99.90
3842;DHT22;1936;47.074;15.336;2023-11-21T07:32:48;6.70;99.90
3842;DHT22;1936;47.074;15.336;2023-11-21T07:34:51;6.70;99.90
3842;DHT22;1936;47.074;15.336;2023-11-21T07:36:54;6.80;99.90
3842;DHT22;1936;47.074;15.336;2023-11-21T07:38:59;6.80;99.90
3842;DHT22;1936;47.074;15.336;2023-11-21T07:41:05;6.90;99.90
3842;DHT22;1936;47.074;15.336;2023-11-21T07:43:23;7.00;99.90
3842;DHT22;1936;47.074;15.336;2023-11-21T07:45:27;7.10;99.90
3842;DHT22;1936;47.074;15.336;2023-11-21T07:47:31;7.20;99.90
3842;DHT22;1936;47.074;15.336;2023-11-21T07:49:36;7.40;99.90
3842;DHT22;1936;47.074;15.336;2023-11-21T07:51:40;7.50;99.90
3842;DHT22;1936;47.074;15.336;2023-11-21T07:53:43;7.60;99.90
3842;DHT22;1936;47.074;15.336;2023-11-21T07:55:48;7.70;99.90
3842;DHT22;1936;47.074;15.336;2023-11-21T07:57:51;7.70;99.90
3842;DHT22;1936;47.074;15.336;2023-11-21T07:59:55;7.80;99.90
3842;DHT22;1936;47.074;15.336;2023-11-21T08:01:58;7.80;99.90
3842;DHT22;1936;47.074;15.336;2023-11-21T08:04:02;7.80;99.90
3842;DHT22;1936;47.074;15.336;2023-11-21T08:06:07;7.90;99.90
3842;DHT22;1936;47.074;15.336;2023-11-21T08:08:10;7.90;99.90
3842;DHT22;1936;47.074;15.336;2023-11-21T08:10:14;7.90;99.90
3842;DHT22;1936;47.074;15.336;2023-11-21T08:12:19;7.90;99.90
3842;DHT22;1936;47.074;15.336;2023-11-21T08:14:23;8.00;99.90
3842;DHT22;1936;47.074;15.336;2023-11-21T08:16:27;8.00;99.90
3842;DHT22;1936;47.074;15.336;2023-11-21T08:18:31;8.00;99.90
3842;DHT22;1936;47.074;15.336;2023-11-21T08:20:34;8.10;99.90
3842;DHT22;1936;47.074;15.336;2023-11-21T08:22:40;8.10;99.90
3842;DHT22;1936;47.074;15.336;2023-11-21T08:24:44;8.20;99.90
3842;DHT22;1936;47.074;15.336;2023-11-21T08:26:49;8.20;99.90
3842;DHT22;1936;47.074;15.336;2023-11-21T08:28:55;8.30;99.90
3842;DHT22;1936;47.074;15.336;2023-11-21T08:31:00;8.40;99.90
3842;DHT22;1936;47.074;15.336;2023-11-21T08:33:04;8.60;99.90
3842;DHT22;1936;47.074;15.336;2023-11-21T08:35:08;8.70;99.90
3842;DHT22;1936;47.074;15.336;2023-11-21T08:37:14;8.70;99.90
3842;DHT22;1936;47.074;15.336;2023-11-21T08:39:18;8.70;99.90
3842;DHT22;1936;47.074;15.336;2023-11-21T08:41:21;8.60;99.90
3842;DHT22;1936;47.074;15.336;2023-11-21T08:43:25;8.60;99.90
3842;DHT22;1936;47.074;15.336;2023-11-21T08:45:31;8.50;99.90
3842;DHT22;1936;47.074;15.336;2023-11-21T08:47:36;8.50;99.90
3842;DHT22;1936;47.074;15.336;2023-11-21T08:49:39;8.60;99.90
3842;DHT22;1936;47.074;15.336;2023-11-21T08:51:44;8.70;99.90
3842;DHT22;1936;47.074;15.336;2023-11-21T08:53:47;8.70;99.90
3842;DHT22;1936;47.074;15.336;2023-11-21T08:55:51;8.70;99.90
3842;DHT22;1936;47.074;15.336;2023-11-21T08:57:55;8.80;99.90
3842;DHT22;1936;47.074;15.336;2023-11-21T09:00:04;9.00;99.90
3842;DHT22;1936;47.074;15.336;2023-11-21T09:02:14;9.00;99.90
3842;DHT22;1936;47.074;15.336;2023-11-21T09:04:17;9.10;99.90
3842;DHT22;1936;47.074;15.336;2023-11-21T09:06:21;9.00;99.90
3842;DHT22;1936;47.074;15.336;2023-11-21T09:08:24;9.10;99.90
3842;DHT22;1936;47.074;15.336;2023-11-21T09:10:27;9.20;99.90
3842;DHT22;1936;47.074;15.336;2023-11-21T09:12:30;9.20;99.90
3842;DHT22;1936;47.074;15.336;2023-11-21T09:14:34;9.20;99.90
3842;DHT22;1936;47.074;15.336;2023-11-21T09:16:39;9.20;99.90
3842;DHT22;1936;47.074;15.336;2023-11-21T09:18:44;9.30;99.90
3842;DHT22;1936;47.074;15.336;2023-11-21T09:20:48;9.20;99.90
3842;DHT22;1936;47.074;15.336;2023-11-21T09:22:51;9.20;99.90
3842;DHT22;1936;47.074;15.336;2023-11-21T09:24:56;9.10;99.90
3842;DHT22;1936;47.074;15.336;2023-11-21T09:27:00;9.20;99.90
3842;DHT22;1936;47.074;15.336;2023-11-21T09:29:03;9.20;99.90
3842;DHT22;1936;47.074;15.336;2023-11-21T09:31:07;9.20;99.90
3842;DHT22;1936;47.074;15.336;2023-11-21T09:33:11;9.20;99.90
3842;DHT22;1936;47.074;15.336;2023-11-21T09:35:16;9.20;99.90
3842;DHT22;1936;47.074;15.336;2023-11-21T09:37:20;9.20;99.90
3842;DHT22;1936;47.074;15.336;2023-11-21T09:39:23;9.10;99.90
3842;DHT22;1936;47.074;15.336;2023-11-21T09:41:33;9.10;99.90
3842;DHT22;1936;47.074;15.336;2023-11-21T09:43:41;9.10;99.90
3842;DHT22;1936;47.074;15.336;2023-11-21T09:45:46;9.00;99.90
3842;DHT22;1936;47.074;15.336;2023-11-21T09:47:52;9.00;99.90
3842;DHT22;1936;47.074;15.336;2023-11-21T09:49:57;9.00;99.90
3842;DHT22;1936;47.074;15.336;2023-11-21T09:52:04;9.00;99.90
